Decoded Metar for LFSI (ST.-DIZIER in FRANCE) (IATA:N/A) | Meteo·Mobile Aviation Weather
aviador You're here:

LFSI Decoded Metar

ST.-DIZIER in FRANCE
Report Time2019-07-16 11:00:00
UTC Time2019-07-16 11:12:11
Flight Rules vfr VFR
WindVRB at 03 kt
Visibility9999 m
Phenomena:N/A
Clouds:N/A
Expected CloudBase > 5,200 ft AGL from Temp-Dew spread
CeilingNone
Temp22°C (ISA +8)
Dew Point09°C (44% RH)
AAT20.7°C
QNH1018 hPa
Density Alt1,368 ft
Elevation459 ft
Report Wrong Elevation
Raw Report
LFSI 161100Z AUTO VRB03KT CAVOK 22/09 Q1018=

Extra information for LFSI:More info

Metar Taf Metar & Taf Last 4 Metars F.Rules Stats Wind Profile Meteogram Temp Stats Airport Information Weather charts Add Link Nearby VenuesMetar ALERT Operation Metar Decoded Social comments